Time;durP1;ratioP1;P1;durP2;ratioP2;P2;SDS_P1;SDS_P2;PMS_P1;PMS_P2;Temp;Humidity;BMP_temperature;BMP_pressure;BME280_temperature;BME280_humidity;BME280_pressure;Samples;Min_cycle;Max_cycle;Signal;HPM_P1;HPM_P2
2022/04/03 00:01:57;;;;;;;13.43;6.47;;;;;;;-1.78;100.00;96189.31;5112829;28;20465;-76
2022/04/03 00:04:24;;;;;;;9.23;6.17;;;;;;;-1.80;100.00;96190.34;5102086;28;20043;-75
2022/04/03 00:06:50;;;;;;;12.73;6.83;;;;;;;-1.77;100.00;96185.84;5110526;28;20469;-75
2022/04/03 00:09:16;;;;;;;8.63;6.03;;;;;;;-1.87;100.00;96189.84;5098469;28;20464;-75
2022/04/03 00:11:42;;;;;;;10.20;6.70;;;;;;;-1.79;100.00;96192.00;5112720;27;20020;-75
2022/04/03 00:14:07;;;;;;;10.37;6.27;;;;;;;-1.95;100.00;96192.00;5105615;28;20131;-74
2022/04/03 00:16:35;;;;;;;11.60;6.80;;;;;;;-1.98;100.00;96189.59;5105784;28;20556;-75
2022/04/03 00:19:00;;;;;;;10.60;6.63;;;;;;;-1.95;100.00;96187.66;5098831;28;20059;-75
2022/04/03 00:21:26;;;;;;;9.00;5.90;;;;;;;-1.85;100.00;96189.75;5114134;27;20496;-75
2022/04/03 00:23:52;;;;;;;10.73;6.17;;;;;;;-1.92;100.00;96182.34;5109864;28;20036;-75
2022/04/03 00:26:19;;;;;;;12.10;6.50;;;;;;;-1.88;100.00;96188.16;5107371;28;20057;-75
2022/04/03 00:28:44;;;;;;;8.87;5.67;;;;;;;-1.96;100.00;96195.50;5106330;28;20031;-75
2022/04/03 00:31:12;;;;;;;10.97;6.73;;;;;;;-2.03;100.00;96189.84;5096683;28;21247;-75
2022/04/03 00:33:39;;;;;;;12.30;7.03;;;;;;;-1.98;100.00;96187.00;5101476;28;20070;-75
2022/04/03 00:36:05;;;;;;;10.70;6.77;;;;;;;-1.99;100.00;96190.50;5112420;28;20476;-75
2022/04/03 00:38:31;;;;;;;13.23;6.97;;;;;;;-2.02;100.00;96190.69;5103618;28;20473;-75
2022/04/03 00:41:00;;;;;;;9.57;6.10;;;;;;;-2.06;100.00;96195.16;5112189;28;20445;-76
2022/04/03 00:43:25;;;;;;;10.20;6.23;;;;;;;-2.13;100.00;96194.66;5091967;28;20530;-75
2022/04/03 00:45:53;;;;;;;10.30;6.30;;;;;;;-2.10;100.00;96201.41;5102868;28;20909;-75
2022/04/03 00:48:18;;;;;;;10.07;6.53;;;;;;;-2.18;100.00;96198.41;5082165;28;20108;-75
2022/04/03 00:50:44;;;;;;;12.03;6.53;;;;;;;-2.15;100.00;96199.09;5111552;28;20426;-75
2022/04/03 00:53:11;;;;;;;11.20;6.50;;;;;;;-2.21;100.00;96194.25;5106722;28;20028;-75
2022/04/03 00:55:41;;;;;;;10.53;6.97;;;;;;;-2.18;100.00;96196.69;5108201;28;20445;-75
2022/04/03 00:58:06;;;;;;;12.43;6.27;;;;;;;-2.21;100.00;96194.25;5106544;28;20551;-75
2022/04/03 01:00:32;;;;;;;12.60;6.60;;;;;;;-2.18;100.00;96196.69;5103344;28;20893;-75
2022/04/03 01:02:58;;;;;;;11.53;6.03;;;;;;;-2.22;100.00;96195.16;5109217;28;20051;-75
2022/04/03 01:05:24;;;;;;;9.57;6.20;;;;;;;-2.27;100.00;96198.91;5113177;28;20023;-75
2022/04/03 01:07:49;;;;;;;11.63;6.67;;;;;;;-2.31;100.00;96205.97;5119258;28;20080;-75
2022/04/03 01:10:16;;;;;;;10.67;6.30;;;;;;;-2.31;100.00;96202.53;5103229;28;20035;-75
2022/04/03 01:12:45;;;;;;;11.90;6.80;;;;;;;-2.38;100.00;96202.06;5104068;28;20024;-75
2022/04/03 01:15:16;;;;;;;10.37;6.23;;;;;;;-2.41;100.00;96208.19;5090415;28;20886;-75
2022/04/03 01:17:43;;;;;;;9.63;6.23;;;;;;;-2.40;100.00;96209.03;5114580;28;20578;-75
2022/04/03 01:20:10;;;;;;;12.40;7.20;;;;;;;-2.39;100.00;96203.78;5089568;28;21096;-75
2022/04/03 01:22:36;;;;;;;13.40;7.10;;;;;;;-2.38;100.00;96200.31;5093887;28;20539;-75
2022/04/03 01:25:03;;;;;;;14.57;7.13;;;;;;;-2.34;100.00;96200.97;5109122;28;21004;-75
2022/04/03 01:27:29;;;;;;;10.97;6.87;;;;;;;-2.41;100.00;96204.78;5105222;28;20453;-75
2022/04/03 01:29:57;;;;;;;15.37;7.40;;;;;;;-2.40;100.00;96201.28;5086715;28;20446;-75
2022/04/03 01:32:23;;;;;;;12.43;7.70;;;;;;;-2.31;100.00;96208.53;5104809;28;20548;-76
2022/04/03 01:34:49;;;;;;;11.97;7.53;;;;;;;-2.44;100.00;96213.50;5104193;28;20557;-75
2022/04/03 01:37:15;;;;;;;11.57;7.73;;;;;;;-2.33;100.00;96212.09;5107709;28;20529;-75
2022/04/03 01:39:41;;;;;;;11.83;6.80;;;;;;;-2.27;100.00;96217.75;5091302;28;20032;-76
2022/04/03 01:42:07;;;;;;;15.40;9.13;;;;;;;-2.10;100.00;96208.31;5100006;28;20541;-75
2022/04/03 01:44:33;;;;;;;16.13;7.63;;;;;;;-2.19;100.00;96217.34;5103880;28;20036;-75
2022/04/03 01:46:59;;;;;;;13.37;7.23;;;;;;;-2.23;100.00;96214.09;5103384;28;20412;-76
2022/04/03 01:49:25;;;;;;;12.13;7.10;;;;;;;-2.22;100.00;96210.59;5112551;28;20449;-75
2022/04/03 01:51:50;;;;;;;11.63;6.97;;;;;;;-2.18;100.00;96219.88;5095452;28;20488;-75
2022/04/03 01:54:16;;;;;;;13.00;7.70;;;;;;;-2.16;100.00;96214.63;5093901;28;20536;-75
2022/04/03 01:56:44;;;;;;;13.67;7.77;;;;;;;-2.14;100.00;96216.19;5109923;28;20070;-75
2022/04/03 01:59:10;;;;;;;11.37;7.90;;;;;;;-2.14;100.00;96217.94;5095256;28;20471;-75
2022/04/03 02:01:36;;;;;;;12.63;8.60;;;;;;;-2.13;100.00;96215.28;5087198;28;20473;-76
2022/04/03 02:04:03;;;;;;;12.47;7.53;;;;;;;-2.21;100.00;96219.19;5100681;28;20683;-76
2022/04/03 02:06:30;;;;;;;11.77;7.40;;;;;;;-2.24;100.00;96220.19;5116382;27;20473;-75
2022/04/03 02:08:57;;;;;;;10.77;7.20;;;;;;;-2.17;100.00;96218.13;5100580;28;20499;-75
2022/04/03 02:11:23;;;;;;;14.13;8.63;;;;;;;-2.29;100.00;96219.56;5108605;28;20545;-75
2022/04/03 02:13:50;;;;;;;11.83;7.53;;;;;;;-2.31;100.00;96215.41;5111679;28;20553;-75
2022/04/03 02:16:16;;;;;;;11.87;7.30;;;;;;;-2.32;100.00;96221.50;5095013;28;20035;-75
2022/04/03 02:18:42;;;;;;;12.20;8.13;;;;;;;-2.33;100.00;96222.41;5109587;27;20469;-75
2022/04/03 02:21:08;;;;;;;13.57;7.50;;;;;;;-2.27;100.00;96224.66;5092084;28;20053;-76
2022/04/03 02:23:34;;;;;;;11.67;7.43;;;;;;;-2.22;100.00;96220.91;5110508;28;20469;-75
2022/04/03 02:25:59;;;;;;;10.80;8.00;;;;;;;-2.19;100.00;96223.31;5112445;28;20357;-75
2022/04/03 02:28:25;;;;;;;13.03;7.67;;;;;;;-2.15;100.00;96224.00;5106890;28;20040;-75
2022/04/03 02:30:51;;;;;;;13.10;7.13;;;;;;;-2.23;100.00;96229.56;5112960;28;20063;-75
2022/04/03 02:33:17;;;;;;;13.10;8.03;;;;;;;-2.30;100.00;96228.22;5110555;28;20039;-75
2022/04/03 02:35:42;;;;;;;10.83;6.77;;;;;;;-2.18;100.00;96227.59;5112742;28;20123;-75
2022/04/03 02:38:08;;;;;;;15.07;8.03;;;;;;;-2.24;100.00;96230.47;5107242;28;20039;-76
2022/04/03 02:40:34;;;;;;;12.53;7.27;;;;;;;-2.25;100.00;96239.09;5110093;28;20118;-75
2022/04/03 02:43:00;;;;;;;10.90;7.57;;;;;;;-2.20;100.00;96229.41;5108114;28;20529;-75
2022/04/03 02:45:26;;;;;;;13.37;7.07;;;;;;;-2.21;100.00;96243.22;5091200;28;20039;-75
2022/04/03 02:47:54;;;;;;;12.63;7.73;;;;;;;-2.20;100.00;96244.03;5108071;28;20460;-75
2022/04/03 02:50:21;;;;;;;12.70;7.73;;;;;;;-2.22;100.00;96246.66;5092772;28;20039;-75
2022/04/03 02:52:52;;;;;;;10.23;7.37;;;;;;;-2.15;100.00;96236.88;5099701;28;20446;-75
2022/04/03 02:55:19;;;;;;;12.50;7.90;;;;;;;-2.18;100.00;96240.47;5100766;27;20500;-75
2022/04/03 02:57:45;;;;;;;13.67;8.03;;;;;;;-2.25;100.00;96246.84;5093443;28;20522;-74
2022/04/03 03:00:15;;;;;;;11.23;7.83;;;;;;;-2.19;100.00;96243.09;5082100;28;20450;-74
2022/04/03 03:02:42;;;;;;;12.93;7.87;;;;;;;-2.18;100.00;96245.63;5106795;28;20473;-75
2022/04/03 03:05:08;;;;;;;12.53;8.03;;;;;;;-2.32;100.00;96249.81;5090737;28;21017;-75
2022/04/03 03:07:39;;;;;;;13.47;8.37;;;;;;;-2.23;100.00;96249.34;5105721;28;20523;-75
2022/04/03 03:10:09;;;;;;;14.80;9.13;;;;;;;-2.20;100.00;96239.72;5111625;28;20449;-76
2022/04/03 03:12:35;;;;;;;13.17;8.13;;;;;;;-2.28;100.00;96243.59;5107836;28;20458;-75
2022/04/03 03:15:03;;;;;;;14.10;8.37;;;;;;;-2.28;100.00;96244.44;5100919;28;20455;-75
2022/04/03 03:17:30;;;;;;;20.23;12.73;;;;;;;-2.31;100.00;96244.59;5107168;28;20472;-75
2022/04/03 03:19:55;;;;;;;22.13;12.17;;;;;;;-2.29;100.00;96247.91;5092864;28;20446;-74
2022/04/03 03:22:21;;;;;;;14.33;8.80;;;;;;;-2.27;100.00;96247.84;5097354;28;20547;-75
2022/04/03 03:24:47;;;;;;;13.20;8.47;;;;;;;-2.30;100.00;96246.25;5093128;28;20027;-75
2022/04/03 03:27:13;;;;;;;12.83;8.23;;;;;;;-2.38;100.00;96256.16;5101905;28;20043;-75
2022/04/03 03:29:38;;;;;;;11.43;7.30;;;;;;;-2.48;100.00;96249.78;5092364;28;20028;-75
2022/04/03 03:32:05;;;;;;;13.20;8.13;;;;;;;-2.52;100.00;96245.69;5101154;28;20034;-75
2022/04/03 03:34:31;;;;;;;13.70;8.70;;;;;;;-2.55;100.00;96253.59;5101866;28;21207;-75
2022/04/03 03:36:56;;;;;;;13.37;8.30;;;;;;;-2.51;100.00;96255.09;5107953;28;20472;-75
2022/04/03 03:39:22;;;;;;;15.10;10.40;;;;;;;-2.56;100.00;96251.94;5102041;28;20071;-74
2022/04/03 03:41:48;;;;;;;20.87;13.30;;;;;;;-2.42;100.00;96254.63;5112867;27;20031;-75
2022/04/03 03:44:13;;;;;;;14.70;8.13;;;;;;;-2.50;100.00;96260.16;5098054;28;20667;-75
2022/04/03 03:46:40;;;;;;;13.23;7.67;;;;;;;-2.37;100.00;96257.78;5112227;28;20038;-75
2022/04/03 03:49:07;;;;;;;13.43;8.20;;;;;;;-2.42;100.00;96252.88;5103185;28;20036;-75
2022/04/03 03:51:34;;;;;;;14.90;8.87;;;;;;;-2.35;100.00;96255.94;5110259;28;20687;-75
2022/04/03 03:54:00;;;;;;;20.23;12.83;;;;;;;-2.30;100.00;96259.13;5118894;27;20540;-75
2022/04/03 03:56:25;;;;;;;18.23;11.33;;;;;;;-2.32;100.00;96265.28;5110602;28;20622;-75
2022/04/03 03:58:51;;;;;;;12.70;7.73;;;;;;;-2.30;100.00;96264.28;5103010;28;20035;-75
2022/04/03 04:01:17;;;;;;;11.93;7.97;;;;;;;-2.25;100.00;96269.19;5109350;27;20132;-75
2022/04/03 04:03:43;;;;;;;11.70;7.83;;;;;;;-2.36;100.00;96269.75;5108524;28;20598;-75
2022/04/03 04:06:09;;;;;;;11.43;7.13;;;;;;;-2.29;100.00;96271.09;5093987;28;20028;-74
2022/04/03 04:08:34;;;;;;;12.27;7.77;;;;;;;-2.33;100.00;96269.59;5093372;28;20027;-75
2022/04/03 04:11:00;;;;;;;11.87;6.80;;;;;;;-2.47;100.00;96274.63;5111285;28;20046;-75
2022/04/03 04:13:26;;;;;;;10.80;7.00;;;;;;;-2.33;100.00;96274.75;5110367;28;20035;-75
2022/04/03 04:15:51;;;;;;;11.37;6.70;;;;;;;-2.49;100.00;96273.88;5101500;28;20097;-75
2022/04/03 04:18:17;;;;;;;13.47;7.63;;;;;;;-2.52;100.00;96281.75;5108318;28;20046;-75
2022/04/03 04:20:43;;;;;;;13.57;8.60;;;;;;;-2.42;100.00;96286.34;5098752;28;20018;-75
2022/04/03 04:23:09;;;;;;;12.77;7.27;;;;;;;-2.46;100.00;96284.84;5099267;28;20058;-75
2022/04/03 04:25:35;;;;;;;11.93;7.00;;;;;;;-2.53;100.00;96290.38;5109765;28;20031;-75
2022/04/03 04:28:01;;;;;;;12.17;6.97;;;;;;;-2.59;100.00;96288.94;5110220;28;20466;-75
2022/04/03 04:30:27;;;;;;;15.23;7.60;;;;;;;-2.71;100.00;96292.16;5105348;28;20551;-75
2022/04/03 04:32:52;;;;;;;12.23;7.00;;;;;;;-2.62;100.00;96297.69;5110079;28;20502;-75
2022/04/03 04:35:18;;;;;;;12.17;6.50;;;;;;;-2.61;100.00;96295.94;5108394;28;20446;-74
2022/04/03 04:37:44;;;;;;;10.87;6.93;;;;;;;-2.62;100.00;96297.69;5103777;28;20031;-75
2022/04/03 04:40:11;;;;;;;11.90;6.37;;;;;;;-2.66;100.00;96290.19;5094026;28;20111;-74
2022/04/03 04:42:37;;;;;;;12.60;6.73;;;;;;;-2.66;100.00;96295.31;5109600;28;20036;-75
2022/04/03 04:45:06;;;;;;;10.30;6.67;;;;;;;-2.54;100.00;96301.63;5109871;28;21022;-75
2022/04/03 04:47:37;;;;;;;12.37;6.63;;;;;;;-2.59;100.00;96296.66;5100462;28;20020;-75
2022/04/03 04:50:11;;;;;;;12.10;6.60;;;;;;;-2.54;100.00;96299.03;5101072;28;21001;-75
2022/04/03 04:52:37;;;;;;;10.67;6.33;;;;;;;-2.49;100.00;96304.78;5110988;28;20461;-75
2022/04/03 04:55:05;;;;;;;9.60;5.67;;;;;;;-2.52;100.00;96300.59;5110265;28;20968;-75
2022/04/03 04:57:36;;;;;;;10.13;6.17;;;;;;;-2.45;100.00;96296.84;5088964;28;20519;-74
2022/04/03 05:00:06;;;;;;;10.43;6.30;;;;;;;-2.42;100.00;96312.09;5100470;28;20878;-75
2022/04/03 05:02:32;;;;;;;11.03;6.83;;;;;;;-2.34;100.00;96308.31;5109009;28;20508;-75
2022/04/03 05:04:57;;;;;;;10.50;6.40;;;;;;;-2.30;100.00;96308.06;5098897;28;21013;-75
2022/04/03 05:07:24;;;;;;;12.43;6.20;;;;;;;-2.30;100.00;96313.22;5088552;28;20069;-74
2022/04/03 05:09:51;;;;;;;8.40;5.57;;;;;;;-2.34;100.00;96314.31;5093261;28;20028;-75
2022/04/03 05:12:17;;;;;;;10.90;6.40;;;;;;;-2.23;100.00;96311.16;5109742;28;20472;-75
2022/04/03 05:14:42;;;;;;;9.80;5.73;;;;;;;-2.26;100.00;96317.31;5105678;28;21263;-76
2022/04/03 05:17:08;;;;;;;9.10;5.53;;;;;;;-2.23;100.00;96322.28;5103252;28;20135;-75
2022/04/03 05:19:36;;;;;;;9.00;5.73;;;;;;;-2.18;100.00;96324.63;5104914;28;20092;-75
2022/04/03 05:22:02;;;;;;;10.77;6.23;;;;;;;-2.21;100.00;96323.06;5096711;28;20473;-75
2022/04/03 05:24:28;;;;;;;9.20;6.00;;;;;;;-2.10;100.00;96337.13;5108942;28;20453;-75
2022/04/03 05:26:54;;;;;;;9.67;5.67;;;;;;;-2.19;100.00;96335.84;5102478;28;20458;-74
2022/04/03 05:29:20;;;;;;;9.30;5.57;;;;;;;-2.28;100.00;96334.59;5114360;28;20118;-74
2022/04/03 05:31:46;;;;;;;10.57;6.27;;;;;;;-2.15;100.00;96334.78;5112553;28;20442;-75
2022/04/03 05:34:12;;;;;;;10.93;5.60;;;;;;;-2.08;100.00;96340.44;5095779;28;20495;-75
2022/04/03 05:36:38;;;;;;;9.63;5.87;;;;;;;-2.05;100.00;96345.44;5111919;28;20019;-74
2022/04/03 05:39:05;;;;;;;8.90;5.43;;;;;;;-2.01;100.00;96342.66;5094034;28;20480;-75
2022/04/03 05:41:35;;;;;;;14.03;6.93;;;;;;;-1.96;100.00;96340.66;5108474;28;20055;-75
2022/04/03 05:44:02;;;;;;;11.07;6.10;;;;;;;-2.03;100.00;96348.78;5109195;28;20481;-75
2022/04/03 05:46:28;;;;;;;11.60;6.93;;;;;;;-1.94;100.00;96338.00;5111030;28;20022;-75
2022/04/03 05:48:54;;;;;;;33.33;19.83;;;;;;;-1.98;100.00;96342.50;5090236;28;20534;-75
2022/04/03 05:51:20;;;;;;;15.27;9.70;;;;;;;-1.91;100.00;96354.13;5112444;27;20465;-75
2022/04/03 05:53:46;;;;;;;11.20;7.13;;;;;;;-1.68;100.00;96355.50;5111481;27;20057;-75
2022/04/03 05:56:12;;;;;;;33.33;24.40;;;;;;;-1.68;100.00;96352.06;5114037;27;20108;-75
2022/04/03 05:58:38;;;;;;;22.70;16.23;;;;;;;-1.66;100.00;96355.41;5112987;28;20445;-75
2022/04/03 06:01:04;;;;;;;12.40;8.30;;;;;;;-1.57;100.00;96354.09;5111453;28;20027;-76
2022/04/03 06:03:30;;;;;;;11.27;7.70;;;;;;;-1.46;100.00;96354.34;5112913;28;20476;-76
2022/04/03 06:05:56;;;;;;;12.33;7.73;;;;;;;-1.50;100.00;96363.16;5113301;28;20457;-75
2022/04/03 06:08:22;;;;;;;12.23;7.10;;;;;;;-1.30;100.00;96365.50;5112484;28;20566;-75
2022/04/03 06:10:47;;;;;;;11.60;7.10;;;;;;;-1.14;100.00;96368.09;5113733;28;20660;-75
2022/04/03 06:13:14;;;;;;;13.23;7.83;;;;;;;-1.09;100.00;96362.66;5109951;28;20028;-75
2022/04/03 06:15:42;;;;;;;12.27;8.57;;;;;;;-0.77;100.00;96361.69;5100563;28;20469;-74
2022/04/03 06:18:09;;;;;;;12.33;7.50;;;;;;;-0.46;100.00;96362.53;5109513;28;20027;-75
2022/04/03 06:20:35;;;;;;;13.93;7.97;;;;;;;-0.09;100.00;96360.38;5111363;28;20493;-76
2022/04/03 06:23:03;;;;;;;11.27;6.53;;;;;;;0.04;100.00;96365.66;5111345;28;20465;-75
2022/04/03 06:25:29;;;;;;;8.97;6.10;;;;;;;0.47;100.00;96364.72;5097463;28;20454;-75
2022/04/03 06:27:55;;;;;;;9.57;6.17;;;;;;;0.73;100.00;96359.66;5093366;28;20522;-75
2022/04/03 06:30:22;;;;;;;11.57;6.77;;;;;;;1.36;100.00;96359.09;5095413;27;20552;-76
2022/04/03 06:32:48;;;;;;;11.70;7.03;;;;;;;1.15;100.00;96371.66;5118832;27;20496;-75
2022/04/03 06:35:14;;;;;;;11.83;7.47;;;;;;;1.05;100.00;96365.41;5107194;28;21009;-75
2022/04/03 06:37:40;;;;;;;9.03;7.00;;;;;;;1.88;100.00;96360.00;5105132;28;20505;-75
2022/04/03 06:40:07;;;;;;;12.93;6.70;;;;;;;2.59;100.00;96367.22;5112976;28;20062;-75
2022/04/03 06:42:34;;;;;;;9.40;5.93;;;;;;;2.53;100.00;96366.81;5108721;28;20072;-75
2022/04/03 06:45:01;;;;;;;10.00;6.50;;;;;;;2.87;100.00;96370.47;5111278;28;20555;-74
2022/04/03 06:47:27;;;;;;;10.63;5.60;;;;;;;3.46;100.00;96367.97;5105992;28;20027;-75
2022/04/03 06:49:53;;;;;;;8.53;5.43;;;;;;;3.60;92.64;96368.72;5111069;28;20583;-75
2022/04/03 06:52:18;;;;;;;6.57;4.30;;;;;;;3.48;87.64;96373.84;5089453;28;20118;-76
2022/04/03 06:54:44;;;;;;;8.60;4.50;;;;;;;3.96;88.91;96371.19;5092429;28;20339;-75
2022/04/03 06:57:19;;;;;;;8.10;4.40;;;;;;;3.25;88.47;96390.28;5109374;28;20522;-76
2022/04/03 06:59:45;;;;;;;8.10;4.13;;;;;;;3.49;90.15;96383.34;5109847;28;20091;-75
2022/04/03 07:02:10;;;;;;;7.40;4.37;;;;;;;3.65;88.96;96377.00;5103824;28;20173;-75
2022/04/03 07:04:36;;;;;;;7.13;4.03;;;;;;;3.24;88.03;96384.25;5111959;27;20042;-76
2022/04/03 07:07:03;;;;;;;7.13;4.30;;;;;;;3.01;93.00;96388.50;5110897;28;20020;-75
2022/04/03 07:09:29;;;;;;;8.07;3.63;;;;;;;2.62;92.15;96397.34;5108496;28;20032;-75
2022/04/03 07:11:55;;;;;;;7.10;4.73;;;;;;;2.96;95.74;96398.41;5097893;28;20052;-75
2022/04/03 07:14:22;;;;;;;7.67;5.10;;;;;;;2.22;96.05;96392.28;5109430;28;20076;-75
2022/04/03 07:16:48;;;;;;;17.67;12.70;;;;;;;2.75;96.47;96400.75;5109564;28;20116;-75
2022/04/03 07:19:14;;;;;;;10.80;6.17;;;;;;;2.18;96.68;96401.22;5107093;28;20107;-75
2022/04/03 07:21:40;;;;;;;9.53;4.20;;;;;;;2.70;98.38;96404.59;5086027;28;20111;-76
2022/04/03 07:24:06;;;;;;;11.57;7.47;;;;;;;3.03;97.22;96409.19;5104620;28;20034;-75
2022/04/03 07:26:33;;;;;;;8.23;4.30;;;;;;;2.70;96.62;96414.97;5104984;28;20024;-75
2022/04/03 07:28:59;;;;;;;6.83;4.23;;;;;;;2.38;96.70;96415.41;5107557;28;20499;-75
2022/04/03 07:31:25;;;;;;;8.87;4.20;;;;;;;3.64;85.57;96412.56;5110616;28;20038;-75
2022/04/03 07:33:52;;;;;;;8.03;4.50;;;;;;;3.69;86.63;96410.47;5108345;28;20026;-76
2022/04/03 07:36:18;;;;;;;8.60;3.90;;;;;;;4.33;80.19;96404.84;5104612;28;20481;-75
2022/04/03 07:38:43;;;;;;;9.03;4.70;;;;;;;4.11;78.48;96410.84;5093126;28;20031;-75
2022/04/03 07:41:11;;;;;;;6.50;3.67;;;;;;;3.68;82.66;96415.78;5094802;28;20066;-76
2022/04/03 07:43:36;;;;;;;7.27;3.37;;;;;;;3.54;85.72;96422.00;5110211;28;20031;-75
2022/04/03 07:46:05;;;;;;;11.93;7.03;;;;;;;4.07;82.03;96419.00;5090914;28;20027;-75
2022/04/03 07:48:31;;;;;;;12.27;8.10;;;;;;;2.92;85.39;96430.75;5095601;28;20064;-76
2022/04/03 07:50:57;;;;;;;8.80;3.73;;;;;;;4.22;75.67;96420.44;5100497;28;20459;-75
2022/04/03 07:53:22;;;;;;;6.87;3.73;;;;;;;5.43;71.08;96416.22;5091120;28;20039;-75
2022/04/03 07:55:48;;;;;;;6.20;3.23;;;;;;;3.42;77.98;96441.06;5112112;27;20055;-76
2022/04/03 07:58:14;;;;;;;8.17;3.63;;;;;;;4.04;75.09;96429.63;5110824;28;20670;-75
2022/04/03 08:00:39;;;;;;;7.87;3.10;;;;;;;4.76;71.99;96431.97;5111444;28;20023;-75
2022/04/03 08:03:05;;;;;;;6.67;3.70;;;;;;;4.93;69.42;96427.13;5103146;28;20440;-75
2022/04/03 08:05:31;;;;;;;5.70;3.33;;;;;;;5.16;69.00;96427.94;5101949;28;20059;-75
2022/04/03 08:07:58;;;;;;;6.43;3.30;;;;;;;3.69;79.47;96440.84;5109181;28;20055;-75
2022/04/03 08:10:24;;;;;;;17.97;10.67;;;;;;;2.99;78.25;96451.94;5104593;28;20476;-75
2022/04/03 08:12:50;;;;;;;15.50;9.67;;;;;;;3.21;79.13;96451.22;5107479;28;20499;-75
2022/04/03 08:15:17;;;;;;;7.50;3.67;;;;;;;4.25;74.56;96447.06;5103304;28;20043;-74
2022/04/03 08:17:44;;;;;;;6.40;3.33;;;;;;;3.73;70.31;96456.13;5108830;28;20027;-75
2022/04/03 08:20:16;;;;;;;6.33;2.93;;;;;;;4.71;71.78;96450.56;5104995;28;20103;-76
2022/04/03 08:22:42;;;;;;;7.07;3.80;;;;;;;4.05;71.95;96460.72;5116446;27;20396;-75
2022/04/03 08:25:10;;;;;;;5.47;3.07;;;;;;;3.98;70.52;96455.16;5114538;27;20028;-75
2022/04/03 08:27:49;;;;;;;7.43;3.10;;;;;;;3.57;73.77;96462.56;5097156;28;20068;-75
2022/04/03 08:30:32;;;;;;;4.47;2.60;;;;;;;2.53;77.01;96465.47;5093309;28;20493;-75
2022/04/03 08:32:59;;;;;;;7.03;2.97;;;;;;;2.71;85.61;96463.38;5108464;28;20121;-75
2022/04/03 08:35:28;;;;;;;8.03;3.13;;;;;;;4.12;77.23;96463.72;5099890;28;21032;-75
2022/04/03 08:37:55;;;;;;;6.60;3.03;;;;;;;4.38;72.57;96460.00;5104729;28;20040;-75
2022/04/03 08:40:23;;;;;;;8.80;3.40;;;;;;;4.59;71.62;96456.69;5106780;28;20035;-75
2022/04/03 08:42:54;;;;;;;8.77;4.90;;;;;;;4.20;69.68;96467.41;5102228;28;20027;-75
2022/04/03 08:45:20;;;;;;;6.20;2.93;;;;;;;4.12;68.71;96468.91;5092402;28;20042;-75
2022/04/03 08:47:56;;;;;;;5.77;2.87;;;;;;;5.45;67.23;96463.91;5095592;28;20032;-76
2022/04/03 08:50:34;;;;;;;4.53;2.63;;;;;;;6.55;63.95;96456.69;5087794;28;20027;-75
2022/04/03 08:53:03;;;;;;;10.60;5.70;;;;;;;5.68;65.72;96460.28;5111186;28;20027;-76
2022/04/03 08:55:29;;;;;;;7.80;4.40;;;;;;;6.42;61.91;96466.50;5113035;27;20110;-75
2022/04/03 08:57:56;;;;;;;8.93;3.90;;;;;;;5.68;61.45;96462.88;5111628;28;20568;-75
2022/04/03 09:00:22;;;;;;;7.30;3.03;;;;;;;5.48;63.13;96473.25;5115563;28;20036;-75
2022/04/03 09:02:50;;;;;;;6.40;3.33;;;;;;;5.11;64.43;96474.38;5114659;28;20036;-75
2022/04/03 09:05:16;;;;;;;6.93;3.57;;;;;;;5.40;63.55;96469.50;5111185;28;20066;-74
2022/04/03 09:07:43;;;;;;;6.03;3.03;;;;;;;6.29;62.94;96469.31;5113142;28;20031;-75
2022/04/03 09:10:10;;;;;;;7.57;3.60;;;;;;;6.98;59.21;96466.97;5090824;28;20024;-75
2022/04/03 09:12:49;;;;;;;7.60;4.67;;;;;;;6.60;56.07;96468.41;5108422;28;20035;-76
2022/04/03 09:15:18;;;;;;;23.33;12.23;;;;;;;7.47;55.30;96469.72;5106554;28;20028;-75
2022/04/03 09:17:46;;;;;;;11.60;5.30;;;;;;;8.03;53.37;96461.25;5123064;27;20050;-75
2022/04/03 09:20:40;;;;;;;6.60;3.37;;;;;;;8.41;51.40;96467.47;5100655;28;20093;-75
2022/04/03 09:23:08;;;;;;;6.30;3.13;;;;;;;7.48;52.11;96471.41;5112366;28;20040;-75
2022/04/03 09:25:38;;;;;;;5.00;2.63;;;;;;;6.04;57.08;96473.94;5116404;28;20571;-76
2022/04/03 09:28:06;;;;;;;8.73;3.90;;;;;;;5.56;59.46;96478.69;5117424;28;20127;-76
2022/04/03 09:30:34;;;;;;;9.00;3.07;;;;;;;6.31;57.75;96478.69;5113854;28;20019;-76
2022/04/03 09:33:02;;;;;;;6.40;3.23;;;;;;;6.96;57.18;96471.47;5114139;27;20595;-77
2022/04/03 09:35:51;;;;;;;8.17;3.40;;;;;;;5.77;57.84;96476.97;5112507;28;20081;-77
2022/04/03 09:38:17;;;;;;;10.53;6.30;;;;;;;6.79;58.97;96475.53;5101492;28;20774;-76
2022/04/03 09:40:47;;;;;;;13.73;6.00;;;;;;;5.58;59.36;96482.00;5110878;28;20035;-77
2022/04/03 09:43:34;;;;;;;10.73;4.50;;;;;;;5.47;59.92;96484.66;5107957;28;20040;-77
2022/04/03 09:46:05;;;;;;;5.60;3.13;;;;;;;6.96;57.36;96470.66;5103263;28;20061;-77
2022/04/03 09:48:40;;;;;;;5.13;3.10;;;;;;;5.99;59.06;96480.47;5101512;28;20046;-76
2022/04/03 09:51:21;;;;;;;10.33;5.37;;;;;;;5.20;60.70;96488.47;5114633;27;20107;-77
2022/04/03 09:53:56;;;;;;;6.13;3.50;;;;;;;4.82;64.05;96489.63;5113101;28;20031;-77
2022/04/03 09:56:23;;;;;;;7.40;3.93;;;;;;;3.36;66.86;96499.53;5114924;28;20300;-77
2022/04/03 09:58:51;;;;;;;6.20;3.67;;;;;;;4.47;65.97;96495.75;5097451;28;20027;-76
2022/04/03 10:01:28;;;;;;;6.53;3.20;;;;;;;3.13;65.85;96495.13;5094259;28;20036;-76
2022/04/03 10:03:55;;;;;;;15.70;9.57;;;;;;;4.59;67.74;96493.16;5098891;28;20064;-77
2022/04/03 10:06:23;;;;;;;14.40;8.37;;;;;;;4.56;62.52;96488.19;5114620;27;20153;-74
2022/04/03 10:08:50;;;;;;;8.33;3.70;;;;;;;5.11;62.56;96489.19;5108310;28;20385;-76
2022/04/03 10:11:16;;;;;;;5.40;2.70;;;;;;;4.35;63.49;96490.63;5102514;28;20101;-77
2022/04/03 10:13:43;;;;;;;8.00;3.50;;;;;;;3.44;68.19;96492.03;5104533;28;20031;-76
2022/04/03 10:16:10;;;;;;;6.00;3.00;;;;;;;4.33;70.38;96485.56;5107250;28;20721;-76
2022/04/03 10:18:37;;;;;;;5.90;3.20;;;;;;;4.84;66.49;96484.34;5095586;28;20239;-77
2022/04/03 10:21:07;;;;;;;6.83;3.13;;;;;;;4.77;67.70;96486.56;5106751;28;20042;-76
2022/04/03 10:23:33;;;;;;;5.97;3.03;;;;;;;3.88;74.32;96500.16;5096052;28;20036;-77
2022/04/03 10:26:03;;;;;;;5.33;3.00;;;;;;;3.99;69.73;96497.59;5092984;28;20114;-76
2022/04/03 10:28:29;;;;;;;6.63;2.80;;;;;;;3.82;71.09;96498.00;5112224;28;20027;-77
2022/04/03 10:31:06;;;;;;;5.57;2.63;;;;;;;3.52;71.23;96497.53;5101124;28;20036;-76
2022/04/03 10:33:40;;;;;;;6.17;2.87;;;;;;;4.21;70.08;96492.50;5110840;28;20145;-77
2022/04/03 10:36:12;;;;;;;8.80;3.67;;;;;;;4.88;62.71;96490.97;5091506;28;20078;-76
2022/04/03 10:38:43;;;;;;;10.10;4.77;;;;;;;3.11;67.56;96497.81;5106966;28;20552;-76
2022/04/03 10:41:29;;;;;;;5.63;3.13;;;;;;;2.63;74.51;96507.22;5112982;28;20019;-76
2022/04/03 10:44:14;;;;;;;7.93;3.27;;;;;;;2.50;75.18;96491.63;5115037;28;20019;-76
2022/04/03 10:47:02;;;;;;;5.97;3.13;;;;;;;2.06;79.60;96498.00;5113540;28;20047;-77
2022/04/03 10:49:40;;;;;;;7.30;4.03;;;;;;;2.81;74.58;96496.41;5107171;28;20613;-76
2022/04/03 10:52:23;;;;;;;6.83;3.07;;;;;;;5.58;65.66;96482.00;5094436;28;20443;-77
2022/04/03 10:54:51;;;;;;;10.57;5.10;;;;;;;5.73;58.29;96483.38;5106232;28;20119;-77
2022/04/03 10:57:32;;;;;;;12.23;6.17;;;;;;;5.22;58.81;96483.13;5113477;28;20491;-77
2022/04/03 11:00:12;;;;;;;17.80;7.60;;;;;;;6.18;55.84;96483.25;5112508;28;20616;-76
2022/04/03 11:02:52;;;;;;;9.07;4.53;;;;;;;6.46;55.59;96486.19;5105968;28;20040;-77
2022/04/03 11:05:26;;;;;;;27.43;16.50;;;;;;;6.00;53.85;96476.91;5109250;28;20035;-77
2022/04/03 11:07:59;;;;;;;11.97;5.63;;;;;;;6.46;55.00;96483.59;5111093;28;20771;-77
2022/04/03 11:10:58;;;;;;;17.92;9.50;;;;;;;7.46;51.45;96475.94;5107625;28;20093;-77
2022/04/03 11:13:30;;;;;;;35.07;17.60;;;;;;;6.33;54.21;96474.16;5115365;27;20057;-77
2022/04/03 11:15:59;;;;;;;27.07;14.40;;;;;;;6.77;52.26;96472.22;5094520;28;20315;-77
2022/04/03 11:18:26;;;;;;;25.70;13.00;;;;;;;5.65;51.48;96480.56;5111008;28;20059;-77
2022/04/03 11:21:17;;;;;;;13.83;7.17;;;;;;;6.91;49.98;96468.44;5094979;28;20050;-76
2022/04/03 11:23:51;;;;;;;10.93;5.43;;;;;;;5.90;49.19;96477.66;5099593;28;20086;-77
2022/04/03 11:26:19;;;;;;;12.00;5.53;;;;;;;6.86;51.00;96470.59;5108362;28;20312;-77
2022/04/03 11:28:45;;;;;;;9.60;4.47;;;;;;;7.00;47.52;96472.03;5109877;28;20028;-76
2022/04/03 11:31:12;;;;;;;18.63;10.80;;;;;;;6.78;46.70;96467.81;5111517;28;20073;-76